Time;durP1;ratioP1;P1;durP2;ratioP2;P2;SDS_P1;SDS_P2;PMS_P1;PMS_P2;Temp;Humidity;BMP_temperature;BMP_pressure;BME280_temperature;BME280_humidity;BME280_pressure;Samples;Min_cycle;Max_cycle;Signal;HPM_P1;HPM_P2
2022/04/21 00:00:05;;;;;;;83.00;40.78;;;;;;;;;;6253093;28;20049;-59
2022/04/21 00:03:25;;;;;;;78.90;39.85;;;;;;;;;;6253300;28;21289;-61
2022/04/21 00:06:26;;;;;;;94.97;51.15;;;;;;;;;;6253501;28;20159;-62
2022/04/21 00:09:26;;;;;;;79.97;38.70;;;;;;;;;;6252808;28;20045;-61
2022/04/21 00:12:28;;;;;;;77.00;36.72;;;;;;;;;;6253422;28;20067;-61
2022/04/21 00:15:29;;;;;;;70.80;33.70;;;;;;;;;;6252885;28;20083;-62
2022/04/21 00:18:30;;;;;;;109.43;49.17;;;;;;;;;;6258321;28;20071;-61
2022/04/21 00:23:26;;;;;;;66.13;34.58;;;;;;;;;;6258940;28;20092;-61
2022/04/21 00:24:51;;;;;;;88.82;41.13;;;;;;;;;;6257845;28;20423;-62
2022/04/21 00:27:52;;;;;;;129.82;53.35;;;;;;;;;;6259073;28;20484;-63
2022/04/21 00:30:53;;;;;;;125.53;51.50;;;;;;;;;;6257112;28;20059;-62
2022/04/21 00:33:55;;;;;;;143.10;56.95;;;;;;;;;;6258016;28;20072;-61
2022/04/21 00:36:56;;;;;;;126.45;50.60;;;;;;;;;;6256601;28;20049;-62
2022/04/21 00:39:56;;;;;;;105.28;44.42;;;;;;;;;;6256616;28;20055;-61
2022/04/21 00:42:58;;;;;;;109.80;47.17;;;;;;;;;;6258231;28;20063;-61
2022/04/21 00:45:59;;;;;;;99.22;46.38;;;;;;;;;;6255741;28;20081;-61
2022/04/21 00:48:59;;;;;;;99.35;43.55;;;;;;;;;;6256210;28;20490;-58
2022/04/21 00:52:02;;;;;;;104.63;46.17;;;;;;;;;;6256249;28;20155;-63
2022/04/21 00:55:04;;;;;;;101.88;45.42;;;;;;;;;;6255419;28;20095;-62
2022/04/21 00:58:06;;;;;;;97.35;43.83;;;;;;;;;;6256672;28;20049;-60
2022/04/21 01:02:46;;;;;;;97.00;44.78;;;;;;;;;;6255196;28;20045;-62
2022/04/21 01:04:29;;;;;;;86.18;38.85;;;;;;;;;;6258220;28;20084;-60
2022/04/21 01:07:30;;;;;;;89.03;41.17;;;;;;;;;;6255749;28;20045;-60
2022/04/21 01:10:33;;;;;;;83.22;38.75;;;;;;;;;;6257215;28;20084;-61
2022/04/21 01:13:35;;;;;;;87.15;40.17;;;;;;;;;;6258473;28;20096;-60
2022/04/21 01:16:35;;;;;;;86.03;39.25;;;;;;;;;;6255252;28;20085;-61
2022/04/21 01:19:36;;;;;;;85.13;40.45;;;;;;;;;;6255646;28;20045;-61
2022/04/21 01:22:37;;;;;;;86.32;40.35;;;;;;;;;;6257256;28;20049;-61
2022/04/21 01:25:42;;;;;;;86.30;38.15;;;;;;;;;;6258646;28;20064;-61
2022/04/21 01:28:45;;;;;;;83.45;37.85;;;;;;;;;;6256932;28;20095;-59
2022/04/21 01:31:46;;;;;;;80.25;37.33;;;;;;;;;;6255919;28;20053;-62
2022/04/21 01:34:46;;;;;;;81.90;39.13;;;;;;;;;;6257322;28;20088;-62
2022/04/21 01:41:09;;;;;;;82.53;38.95;;;;;;;;;;6255954;28;21367;-60
2022/04/21 01:44:10;;;;;;;84.68;38.88;;;;;;;;;;6256550;28;20048;-60
2022/04/21 01:47:11;;;;;;;90.68;40.25;;;;;;;;;;6256681;28;20049;-62
2022/04/21 01:50:11;;;;;;;82.78;40.17;;;;;;;;;;6253176;28;20681;-62
2022/04/21 01:53:12;;;;;;;87.43;39.92;;;;;;;;;;6256023;28;20049;-63
2022/04/21 01:56:13;;;;;;;86.13;41.20;;;;;;;;;;6258491;28;20057;-62
2022/04/21 01:59:13;;;;;;;86.88;40.97;;;;;;;;;;6254912;28;20389;-60
2022/04/21 02:02:14;;;;;;;91.10;41.55;;;;;;;;;;6256469;28;20401;-62
2022/04/21 02:05:15;;;;;;;85.50;40.38;;;;;;;;;;6256471;28;20068;-60
2022/04/21 02:08:15;;;;;;;84.15;41.25;;;;;;;;;;6255156;28;20129;-62
2022/04/21 02:11:16;;;;;;;84.88;41.38;;;;;;;;;;6255128;28;20086;-62
2022/04/21 02:14:17;;;;;;;84.07;39.65;;;;;;;;;;6257067;28;20072;-60
2022/04/21 02:17:17;;;;;;;80.95;38.10;;;;;;;;;;6256371;28;20045;-62
2022/04/21 02:20:18;;;;;;;83.88;40.25;;;;;;;;;;6254342;28;20049;-61
2022/04/21 02:23:19;;;;;;;79.57;38.85;;;;;;;;;;6257283;28;20049;-61
2022/04/21 02:26:19;;;;;;;90.32;41.38;;;;;;;;;;6257278;28;20049;-63
2022/04/21 02:29:20;;;;;;;83.75;39.00;;;;;;;;;;6252695;28;20067;-59
2022/04/21 02:32:21;;;;;;;84.20;39.88;;;;;;;;;;6254444;28;20523;-62
2022/04/21 02:35:22;;;;;;;79.03;39.25;;;;;;;;;;6256080;28;20195;-62
2022/04/21 02:38:23;;;;;;;80.20;39.35;;;;;;;;;;6255257;28;20044;-62
2022/04/21 02:41:26;;;;;;;86.15;41.78;;;;;;;;;;6254747;28;20503;-61
2022/04/21 02:44:26;;;;;;;87.90;41.05;;;;;;;;;;6255919;28;20118;-61
2022/04/21 02:47:28;;;;;;;84.47;40.55;;;;;;;;;;6255487;28;20080;-63
2022/04/21 02:50:29;;;;;;;86.68;40.20;;;;;;;;;;6252440;28;20554;-61
2022/04/21 03:00:09;;;;;;;83.43;38.83;;;;;;;;;;6251967;28;20080;-61
2022/04/21 03:03:09;;;;;;;84.43;38.63;;;;;;;;;;6255108;28;20055;-62
2022/04/21 03:06:13;;;;;;;85.28;39.95;;;;;;;;;;6254176;28;20041;-62
2022/04/21 03:09:13;;;;;;;84.97;39.20;;;;;;;;;;6253184;28;20478;-62
2022/04/21 03:12:14;;;;;;;87.75;38.65;;;;;;;;;;6255393;28;20056;-62
2022/04/21 03:15:15;;;;;;;84.28;41.33;;;;;;;;;;6255527;28;20063;-61
2022/04/21 03:18:15;;;;;;;89.07;42.85;;;;;;;;;;6254675;28;20487;-61
2022/04/21 03:24:35;;;;;;;90.80;39.00;;;;;;;;;;6253133;28;20258;-62
2022/04/21 03:27:36;;;;;;;83.35;38.35;;;;;;;;;;6254900;28;20053;-62
2022/04/21 03:30:38;;;;;;;83.40;39.35;;;;;;;;;;6249064;28;20089;-61
2022/04/21 03:33:38;;;;;;;79.93;37.22;;;;;;;;;;6253711;28;20052;-61
2022/04/21 03:36:47;;;;;;;90.63;40.33;;;;;;;;;;6252690;28;20477;-62
2022/04/21 03:39:48;;;;;;;91.13;42.03;;;;;;;;;;6251419;28;20532;-57
2022/04/21 03:42:48;;;;;;;95.80;41.10;;;;;;;;;;6255526;28;20084;-61
2022/04/21 03:45:49;;;;;;;89.60;40.85;;;;;;;;;;6255725;28;20451;-61
2022/04/21 03:48:50;;;;;;;86.63;40.90;;;;;;;;;;6257362;28;20072;-62
2022/04/21 03:51:50;;;;;;;89.55;39.63;;;;;;;;;;6249252;28;20059;-62
2022/04/21 03:54:51;;;;;;;94.28;43.00;;;;;;;;;;6253532;28;20480;-62
2022/04/21 03:57:52;;;;;;;95.95;43.60;;;;;;;;;;6254945;28;20199;-59
2022/04/21 04:00:52;;;;;;;99.82;45.03;;;;;;;;;;6249296;28;20053;-60
2022/04/21 04:03:53;;;;;;;105.03;45.58;;;;;;;;;;6254111;28;20052;-57
2022/04/21 04:13:32;;;;;;;93.38;42.33;;;;;;;;;;6250568;28;20045;-59
2022/04/21 04:16:37;;;;;;;95.72;41.75;;;;;;;;;;6253412;28;21394;-56
2022/04/21 04:19:38;;;;;;;94.40;43.45;;;;;;;;;;6250180;28;20135;-59
2022/04/21 04:22:42;;;;;;;93.68;42.63;;;;;;;;;;6251131;28;20533;-61
2022/04/21 04:25:43;;;;;;;92.80;44.40;;;;;;;;;;6249432;28;20116;-61
2022/04/21 04:28:43;;;;;;;109.75;45.72;;;;;;;;;;6256385;28;20427;-62
2022/04/21 04:31:45;;;;;;;104.00;44.47;;;;;;;;;;6250954;28;20059;-62
2022/04/21 04:34:46;;;;;;;96.40;43.38;;;;;;;;;;6252867;28;20078;-61
2022/04/21 04:37:46;;;;;;;97.15;45.05;;;;;;;;;;6254620;28;20049;-61
2022/04/21 04:40:47;;;;;;;98.40;45.00;;;;;;;;;;6248819;28;20055;-64
2022/04/21 04:43:48;;;;;;;99.32;43.90;;;;;;;;;;6251874;28;20152;-60
2022/04/21 04:46:48;;;;;;;105.95;46.13;;;;;;;;;;6254229;28;20080;-62
2022/04/21 04:49:49;;;;;;;106.65;47.17;;;;;;;;;;6253783;28;20103;-59
2022/04/21 04:52:56;;;;;;;117.15;47.75;;;;;;;;;;6250655;28;20056;-61
2022/04/21 04:55:56;;;;;;;108.10;46.90;;;;;;;;;;6254390;28;20159;-61
2022/04/21 04:58:57;;;;;;;106.53;48.17;;;;;;;;;;6253514;28;20063;-60
2022/04/21 05:01:57;;;;;;;123.35;52.63;;;;;;;;;;6251185;28;20057;-62
2022/04/21 05:04:58;;;;;;;132.60;56.55;;;;;;;;;;6252511;28;20160;-61
2022/04/21 05:07:59;;;;;;;132.15;57.63;;;;;;;;;;6256814;28;20057;-62
2022/04/21 05:11:01;;;;;;;149.13;64.22;;;;;;;;;;6258530;28;20203;-62
2022/04/21 05:14:02;;;;;;;141.95;60.25;;;;;;;;;;6256985;28;20091;-63
2022/04/21 05:17:03;;;;;;;142.57;60.93;;;;;;;;;;6259674;28;20159;-61
2022/04/21 05:20:05;;;;;;;141.80;65.85;;;;;;;;;;6256863;28;20496;-62
2022/04/21 05:23:06;;;;;;;130.55;63.40;;;;;;;;;;6255157;28;20053;-61
2022/04/21 05:26:07;;;;;;;127.70;58.78;;;;;;;;;;6257977;28;20052;-62
2022/04/21 05:32:28;;;;;;;118.13;56.47;;;;;;;;;;6258218;28;20087;-62
2022/04/21 05:35:29;;;;;;;120.67;56.50;;;;;;;;;;6253093;28;20045;-62
2022/04/21 05:38:31;;;;;;;117.57;53.05;;;;;;;;;;6255261;28;20891;-62
2022/04/21 05:41:32;;;;;;;115.33;54.90;;;;;;;;;;6254574;28;20131;-62
2022/04/21 05:44:35;;;;;;;119.60;54.60;;;;;;;;;;6252663;28;21333;-62
2022/04/21 05:47:36;;;;;;;104.20;50.33;;;;;;;;;;6255901;28;20049;-60
2022/04/21 05:50:37;;;;;;;104.60;49.20;;;;;;;;;;6254907;28;20865;-60
2022/04/21 05:53:41;;;;;;;99.65;48.88;;;;;;;;;;6254160;28;20049;-61
2022/04/21 05:56:42;;;;;;;101.25;49.35;;;;;;;;;;6259245;28;20068;-61
2022/04/21 05:59:43;;;;;;;96.88;45.35;;;;;;;;;;6267095;28;20500;-62
2022/04/21 06:02:43;;;;;;;101.50;46.83;;;;;;;;;;6266910;28;20045;-63
2022/04/21 06:05:44;;;;;;;98.63;46.72;;;;;;;;;;6259371;28;20136;-50
2022/04/21 06:08:45;;;;;;;94.55;44.45;;;;;;;;;;6267838;28;20057;-51
2022/04/21 06:11:46;;;;;;;84.70;41.78;;;;;;;;;;6266051;28;20136;-56
2022/04/21 06:14:47;;;;;;;84.93;39.38;;;;;;;;;;6265768;28;20079;-50
2022/04/21 06:17:48;;;;;;;81.03;37.92;;;;;;;;;;6266147;28;20110;-51
2022/04/21 06:20:48;;;;;;;69.10;34.83;;;;;;;;;;6266193;28;20049;-51
2022/04/21 06:23:49;;;;;;;75.25;35.60;;;;;;;;;;6261851;28;20136;-55
2022/04/21 06:26:49;;;;;;;68.18;36.17;;;;;;;;;;6263073;28;20099;-50
2022/04/21 06:29:50;;;;;;;60.40;32.72;;;;;;;;;;6266605;28;20578;-51
2022/04/21 06:32:51;;;;;;;57.72;29.23;;;;;;;;;;6263658;28;20067;-51
2022/04/21 06:35:52;;;;;;;55.00;29.90;;;;;;;;;;6266125;28;20049;-53
2022/04/21 06:38:52;;;;;;;59.63;30.17;;;;;;;;;;6263995;28;20075;-51
2022/04/21 06:41:53;;;;;;;65.05;33.10;;;;;;;;;;6263356;28;20390;-54
2022/04/21 06:48:13;;;;;;;64.07;32.80;;;;;;;;;;6263526;28;20485;-53
2022/04/21 06:51:15;;;;;;;62.38;31.73;;;;;;;;;;6264896;28;20055;-51
2022/04/21 06:54:15;;;;;;;64.07;31.27;;;;;;;;;;6263886;28;20041;-51
2022/04/21 06:57:17;;;;;;;59.20;31.38;;;;;;;;;;6265955;28;20052;-52
2022/04/21 07:00:17;;;;;;;60.53;30.17;;;;;;;;;;6267262;28;20044;-52
2022/04/21 07:03:18;;;;;;;58.45;29.75;;;;;;;;;;6266592;28;20534;-52
2022/04/21 07:06:19;;;;;;;56.45;29.00;;;;;;;;;;6264500;28;20186;-54
2022/04/21 07:09:19;;;;;;;60.88;30.85;;;;;;;;;;6264491;28;20053;-52
2022/04/21 07:12:24;;;;;;;54.83;28.70;;;;;;;;;;6263586;28;20119;-51
2022/04/21 07:15:25;;;;;;;55.38;28.92;;;;;;;;;;6259174;28;20517;-51
2022/04/21 07:18:26;;;;;;;52.10;27.00;;;;;;;;;;6264766;28;20087;-51
2022/04/21 07:21:27;;;;;;;48.58;25.55;;;;;;;;;;6264385;28;20373;-51
2022/04/21 07:24:27;;;;;;;50.63;25.65;;;;;;;;;;6244289;28;20163;-54
2022/04/21 07:27:28;;;;;;;49.40;25.42;;;;;;;;;;6262991;28;20044;-51
2022/04/21 07:30:28;;;;;;;46.58;24.48;;;;;;;;;;6263100;28;20140;-52
2022/04/21 07:33:29;;;;;;;44.17;23.42;;;;;;;;;;6262702;28;20060;-52
2022/04/21 07:36:30;;;;;;;39.78;21.23;;;;;;;;;;6262736;28;20206;-52
2022/04/21 07:39:31;;;;;;;37.63;21.67;;;;;;;;;;6263556;28;20052;-53
2022/04/21 07:42:32;;;;;;;40.67;21.67;;;;;;;;;;6263964;28;20048;-53
2022/04/21 07:45:33;;;;;;;37.40;19.92;;;;;;;;;;6258223;28;20515;-52
2022/04/21 07:49:45;;;;;;;40.47;20.38;;;;;;;;;;6260693;28;20097;-53
2022/04/21 07:53:12;;;;;;;37.75;19.75;;;;;;;;;;6261788;28;20049;-50
2022/04/21 07:55:25;;;;;;;39.83;21.40;;;;;;;;;;6260415;28;20136;-51
2022/04/21 07:58:27;;;;;;;37.83;19.52;;;;;;;;;;6258609;28;20075;-53
2022/04/21 08:01:27;;;;;;;41.50;19.95;;;;;;;;;;6263047;28;20051;-53
2022/04/21 08:04:29;;;;;;;33.70;19.65;;;;;;;;;;6262337;28;20049;-51
2022/04/21 08:07:31;;;;;;;36.88;19.88;;;;;;;;;;6260656;28;20128;-52
2022/04/21 08:10:32;;;;;;;35.28;19.88;;;;;;;;;;6264451;28;20072;-52
2022/04/21 08:13:33;;;;;;;35.70;19.70;;;;;;;;;;6264395;28;20399;-53
2022/04/21 08:16:34;;;;;;;34.65;19.17;;;;;;;;;;6263151;28;20045;-53
2022/04/21 08:19:35;;;;;;;33.42;17.98;;;;;;;;;;6260921;28;20127;-55
2022/04/21 08:22:36;;;;;;;36.08;20.30;;;;;;;;;;6263695;28;20064;-50
2022/04/21 08:35:34;;;;;;;32.53;18.40;;;;;;;;;;6259531;28;20075;-55
2022/04/21 08:38:34;;;;;;;33.90;19.42;;;;;;;;;;6264981;28;20091;-55
2022/04/21 08:41:41;;;;;;;36.15;20.63;;;;;;;;;;6266226;28;20045;-56
2022/04/21 08:44:44;;;;;;;42.40;23.83;;;;;;;;;;6266451;28;20729;-54
2022/04/21 08:47:48;;;;;;;40.90;22.50;;;;;;;;;;6265819;28;20484;-56
2022/04/21 08:50:49;;;;;;;45.33;24.25;;;;;;;;;;6264670;28;20060;-56
2022/04/21 08:53:51;;;;;;;43.00;24.08;;;;;;;;;;6263942;28;20076;-57
2022/04/21 08:56:52;;;;;;;37.97;20.48;;;;;;;;;;6265273;28;20053;-56
2022/04/21 08:59:52;;;;;;;41.63;22.65;;;;;;;;;;6264685;28;20076;-55
2022/04/21 09:02:53;;;;;;;36.20;21.52;;;;;;;;;;6262789;28;20045;-56
2022/04/21 09:05:54;;;;;;;37.10;20.35;;;;;;;;;;6267479;28;20539;-53
2022/04/21 09:09:21;;;;;;;37.00;20.17;;;;;;;;;;6264346;28;20149;-55
2022/04/21 09:12:22;;;;;;;35.33;20.27;;;;;;;;;;6261858;28;20489;-55
2022/04/21 09:15:36;;;;;;;36.53;20.60;;;;;;;;;;6267563;28;20408;-54
2022/04/21 09:18:47;;;;;;;34.42;19.60;;;;;;;;;;6263739;28;20049;-55
2022/04/21 09:21:50;;;;;;;33.92;18.73;;;;;;;;;;6265945;28;20045;-55
2022/04/21 09:24:52;;;;;;;32.63;16.98;;;;;;;;;;6264851;28;20076;-55
2022/04/21 09:27:54;;;;;;;28.17;15.75;;;;;;;;;;6265260;28;20071;-55
2022/04/21 09:30:56;;;;;;;29.30;15.98;;;;;;;;;;6264888;28;20084;-53
2022/04/21 09:33:58;;;;;;;26.85;14.68;;;;;;;;;;6263512;28;20535;-55
2022/04/21 09:36:59;;;;;;;32.10;17.85;;;;;;;;;;6264065;28;20072;-51
2022/04/21 09:40:02;;;;;;;34.75;17.52;;;;;;;;;;6265988;28;20888;-53
2022/04/21 09:43:03;;;;;;;31.95;18.38;;;;;;;;;;6263503;28;20056;-53
2022/04/21 09:46:16;;;;;;;37.20;19.23;;;;;;;;;;6267264;28;20441;-55
2022/04/21 09:49:43;;;;;;;33.35;19.30;;;;;;;;;;6264514;28;20041;-51
2022/04/21 09:52:49;;;;;;;33.15;18.35;;;;;;;;;;6264922;28;20049;-54
2022/04/21 09:55:51;;;;;;;31.77;18.42;;;;;;;;;;6263867;28;20045;-54
2022/04/21 09:58:51;;;;;;;34.95;19.15;;;;;;;;;;6264674;28;20463;-51
2022/04/21 10:01:52;;;;;;;22.25;13.10;;;;;;;;;;6265495;28;20199;-51
2022/04/21 10:04:54;;;;;;;23.23;13.25;;;;;;;;;;6266179;28;20059;-51
2022/04/21 10:07:56;;;;;;;25.20;13.00;;;;;;;;;;6266246;28;20149;-52
2022/04/21 10:10:56;;;;;;;19.88;11.93;;;;;;;;;;6268152;28;20048;-52
2022/04/21 10:13:58;;;;;;;24.38;13.27;;;;;;;;;;6267154;28;20069;-53
2022/04/21 10:16:58;;;;;;;35.38;17.50;;;;;;;;;;6265489;28;20045;-51
2022/04/21 10:20:00;;;;;;;31.95;16.13;;;;;;;;;;6265145;28;20064;-53
2022/04/21 10:23:02;;;;;;;24.50;14.55;;;;;;;;;;6264773;28;20052;-55
2022/04/21 10:26:03;;;;;;;23.92;12.90;;;;;;;;;;6265585;28;20057;-55
2022/04/21 10:29:14;;;;;;;24.50;13.20;;;;;;;;;;6263464;28;20482;-56
2022/04/21 10:32:18;;;;;;;24.38;12.98;;;;;;;;;;6262495;28;20188;-52
2022/04/21 10:35:28;;;;;;;22.13;13.90;;;;;;;;;;6262574;28;20088;-51
2022/04/21 10:38:29;;;;;;;24.67;14.48;;;;;;;;;;6260640;28;20140;-52
2022/04/21 10:41:35;;;;;;;25.77;14.25;;;;;;;;;;6263246;28;20053;-52
2022/04/21 10:44:43;;;;;;;22.15;13.70;;;;;;;;;;6265579;28;20041;-54
2022/04/21 10:48:05;;;;;;;23.65;13.30;;;;;;;;;;6262457;28;20049;-58
2022/04/21 10:51:06;;;;;;;25.55;14.10;;;;;;;;;;6263277;28;20507;-53
2022/04/21 10:57:31;;;;;;;19.88;12.52;;;;;;;;;;6267546;28;20068;-52
2022/04/21 11:00:32;;;;;;;19.35;11.25;;;;;;;;;;6264724;28;20072;-52
2022/04/21 11:03:33;;;;;;;21.85;12.90;;;;;;;;;;6265539;28;20049;-54
2022/04/21 11:06:39;;;;;;;23.70;13.57;;;;;;;;;;6269372;28;20049;-56
2022/04/21 11:09:50;;;;;;;24.10;13.93;;;;;;;;;;6265907;28;20073;-53
2022/04/21 11:12:51;;;;;;;23.73;13.88;;;;;;;;;;6261764;28;20053;-55
2022/04/21 11:15:53;;;;;;;24.75;15.27;;;;;;;;;;6266221;28;20586;-52
2022/04/21 11:19:29;;;;;;;23.80;14.20;;;;;;;;;;6259837;28;20052;-51
2022/04/21 11:22:36;;;;;;;26.60;14.05;;;;;;;;;;6262608;28;20199;-54
2022/04/21 11:25:37;;;;;;;25.13;13.85;;;;;;;;;;6265840;28;20041;-52
2022/04/21 11:28:42;;;;;;;24.88;14.25;;;;;;;;;;6265835;28;20067;-56
2022/04/21 11:31:42;;;;;;;22.85;12.80;;;;;;;;;;6263943;28;20059;-54
2022/04/21 11:35:01;;;;;;;21.33;12.57;;;;;;;;;;6261221;28;20052;-56
2022/04/21 11:38:01;;;;;;;24.25;13.20;;;;;;;;;;6256947;28;20077;-55
2022/04/21 11:41:03;;;;;;;22.23;13.02;;;;;;;;;;6265572;28;20136;-57
2022/04/21 11:44:04;;;;;;;21.60;12.32;;;;;;;;;;6263747;28;20049;-55
2022/04/21 11:47:05;;;;;;;24.38;12.20;;;;;;;;;;6262735;28;20096;-52
2022/04/21 11:50:06;;;;;;;17.65;10.88;;;;;;;;;;6264112;28;20075;-57
2022/04/21 11:53:12;;;;;;;22.55;12.57;;;;;;;;;;6262982;28;20064;-55
2022/04/21 11:56:16;;;;;;;21.83;12.05;;;;;;;;;;6262624;28;20037;-54
2022/04/21 11:59:17;;;;;;;21.73;12.25;;;;;;;;;;6265032;28;20076;-53
2022/04/21 12:09:02;;;;;;;37.65;18.75;;;;;;;;;;6261567;28;20088;-58
2022/04/21 12:12:04;;;;;;;38.78;18.50;;;;;;;;;;6261716;28;20107;-55
2022/04/21 12:15:05;;;;;;;34.65;19.58;;;;;;;;;;6268479;28;20053;-52
2022/04/21 12:18:06;;;;;;;32.22;18.85;;;;;;;;;;6265770;28;20073;-55
2022/04/21 12:21:06;;;;;;;33.95;17.15;;;;;;;;;;6268421;28;20041;-54
2022/04/21 12:24:20;;;;;;;33.03;17.33;;;;;;;;;;6267165;28;20175;-55
2022/04/21 12:27:30;;;;;;;36.22;18.88;;;;;;;;;;6266715;28;20048;-55
2022/04/21 12:30:31;;;;;;;32.15;17.63;;;;;;;;;;6265105;28;20084;-53
2022/04/21 12:33:42;;;;;;;28.90;16.98;;;;;;;;;;6265718;28;20049;-55
2022/04/21 12:36:54;;;;;;;34.03;17.17;;;;;;;;;;6257380;28;20069;-56
2022/04/21 12:40:08;;;;;;;30.77;17.77;;;;;;;;;;6265941;28;20707;-56
2022/04/21 12:43:08;;;;;;;31.50;17.55;;;;;;;;;;6269672;28;20091;-51
2022/04/21 12:46:09;;;;;;;31.65;17.52;;;;;;;;;;6269113;28;20587;-55
2022/04/21 12:49:10;;;;;;;30.58;16.88;;;;;;;;;;6263354;28;20473;-56
2022/04/21 12:52:11;;;;;;;33.50;18.85;;;;;;;;;;6267487;28;20472;-54
2022/04/21 12:55:22;;;;;;;31.15;18.40;;;;;;;;;;6266673;28;20060;-55
2022/04/21 12:58:31;;;;;;;36.25;18.67;;;;;;;;;;6257984;28;20045;-51
2022/04/21 13:01:31;;;;;;;32.95;18.73;;;;;;;;;;6265151;28;20530;-52
2022/04/21 13:04:32;;;;;;;32.10;18.23;;;;;;;;;;6267840;28;20048;-54
2022/04/21 13:07:33;;;;;;;31.08;17.90;;;;;;;;;;6267227;28;20041;-56
2022/04/21 13:10:33;;;;;;;29.50;17.75;;;;;;;;;;6265960;28;20252;-56
2022/04/21 13:13:36;;;;;;;35.55;19.17;;;;;;;;;;6267693;28;20439;-51
2022/04/21 13:16:36;;;;;;;33.78;19.20;;;;;;;;;;6267299;28;20072;-49
2022/04/21 13:19:37;;;;;;;33.55;18.27;;;;;;;;;;6268180;28;20041;-51
2022/04/21 13:22:37;;;;;;;37.35;18.95;;;;;;;;;;6267531;28;20069;-54
2022/04/21 13:25:38;;;;;;;35.92;19.13;;;;;;;;;;6263610;28;20052;-56
2022/04/21 13:28:39;;;;;;;32.85;18.77;;;;;;;;;;6269065;28;20140;-51
2022/04/21 13:34:58;;;;;;;31.33;16.25;;;;;;;;;;6265293;28;20045;-51
2022/04/21 13:38:00;;;;;;;33.83;17.60;;;;;;;;;;6266200;28;20412;-52
2022/04/21 13:41:00;;;;;;;30.55;17.23;;;;;;;;;;6266507;28;20132;-56
2022/04/21 13:44:01;;;;;;;33.90;18.23;;;;;;;;;;6265530;28;20750;-52
2022/04/21 13:47:03;;;;;;;28.85;17.67;;;;;;;;;;6267274;28;20077;-55
2022/04/21 13:50:04;;;;;;;29.75;17.38;;;;;;;;;;6265443;28;20598;-51
2022/04/21 13:53:06;;;;;;;49.28;17.95;;;;;;;;;;6263806;28;20063;-52
2022/04/21 13:56:07;;;;;;;;;;;;;;;;;;6267816;28;20114;-52
2022/04/21 13:59:10;;;;;;;28.63;16.38;;;;;;;;;;6264070;28;20011;-54
2022/04/21 14:02:10;;;;;;;29.13;16.65;;;;;;;;;;6262942;28;20056;-55
2022/04/21 14:05:11;;;;;;;28.27;16.98;;;;;;;;;;6266515;28;20081;-52
2022/04/21 14:08:12;;;;;;;29.30;16.88;;;;;;;;;;6268535;28;20052;-53
2022/04/21 14:11:15;;;;;;;29.55;16.70;;;;;;;;;;6266891;28;20084;-52
2022/04/21 14:14:15;;;;;;;29.20;17.23;;;;;;;;;;6269117;28;20045;-54
2022/04/21 14:17:16;;;;;;;30.70;16.20;;;;;;;;;;6269113;28;20029;-52
2022/04/21 14:20:17;;;;;;;30.45;16.70;;;;;;;;;;6265623;28;20498;-54
2022/04/21 14:23:18;;;;;;;30.40;17.23;;;;;;;;;;6265035;28;20128;-51
2022/04/21 14:26:19;;;;;;;31.80;17.85;;;;;;;;;;6265323;28;20048;-54
2022/04/21 14:29:20;;;;;;;30.23;16.42;;;;;;;;;;6264645;28;20056;-55
2022/04/21 14:32:20;;;;;;;28.52;17.50;;;;;;;;;;6261769;28;20055;-51
2022/04/21 14:35:24;;;;;;;46.67;19.33;;;;;;;;;;6266357;28;20045;-54
2022/04/21 14:45:04;;;;;;;28.42;17.08;;;;;;;;;;6254737;28;20045;-53
2022/04/21 14:48:05;;;;;;;32.95;17.58;;;;;;;;;;6260563;28;20084;-52
2022/04/21 14:51:06;;;;;;;31.48;17.17;;;;;;;;;;6263345;28;20048;-53
2022/04/21 14:54:06;;;;;;;27.75;15.98;;;;;;;;;;6262057;28;20512;-52
2022/04/21 14:57:07;;;;;;;39.50;19.42;;;;;;;;;;6263472;28;20053;-55
2022/04/21 15:00:08;;;;;;;31.90;17.80;;;;;;;;;;6266280;28;20081;-54
2022/04/21 15:03:10;;;;;;;34.50;18.47;;;;;;;;;;6265088;28;20071;-53
2022/04/21 15:06:11;;;;;;;38.58;18.10;;;;;;;;;;6265223;28;20053;-54
2022/04/21 15:09:12;;;;;;;39.80;21.50;;;;;;;;;;6266700;28;20076;-52
2022/04/21 15:12:13;;;;;;;35.45;19.02;;;;;;;;;;6264357;28;20056;-51
2022/04/21 15:15:13;;;;;;;34.90;16.52;;;;;;;;;;6260880;28;20053;-54
2022/04/21 15:18:14;;;;;;;34.78;17.38;;;;;;;;;;6264014;28;20076;-52
2022/04/21 15:21:15;;;;;;;39.35;20.55;;;;;;;;;;6264103;28;20132;-57
2022/04/21 15:24:15;;;;;;;45.58;21.80;;;;;;;;;;6260130;28;20041;-54
2022/04/21 15:27:16;;;;;;;39.67;18.23;;;;;;;;;;6266101;28;20049;-52
2022/04/21 15:30:17;;;;;;;37.53;18.65;;;;;;;;;;6264814;28;20147;-56
2022/04/21 15:33:18;;;;;;;30.27;15.50;;;;;;;;;;6260809;28;20526;-52
2022/04/21 15:36:19;;;;;;;36.55;17.63;;;;;;;;;;6260733;28;20132;-52
2022/04/21 15:39:19;;;;;;;35.95;20.33;;;;;;;;;;6259804;28;20053;-55
2022/04/21 15:42:20;;;;;;;38.28;19.30;;;;;;;;;;6250548;28;20059;-57
2022/04/21 15:45:22;;;;;;;28.40;15.70;;;;;;;;;;6247945;28;20052;-57
2022/04/21 15:48:22;;;;;;;35.78;16.50;;;;;;;;;;6250195;28;20056;-52
2022/04/21 15:51:28;;;;;;;32.88;17.92;;;;;;;;;;6250808;28;20051;-52
2022/04/21 16:01:08;;;;;;;29.83;15.77;;;;;;;;;;6252589;28;20188;-55
2022/04/21 16:04:08;;;;;;;33.13;16.52;;;;;;;;;;6249930;28;20579;-57
2022/04/21 16:07:09;;;;;;;36.08;18.45;;;;;;;;;;6252704;28;20049;-55
2022/04/21 16:10:11;;;;;;;32.03;16.70;;;;;;;;;;6257349;28;20079;-57
2022/04/21 16:13:11;;;;;;;67.60;24.08;;;;;;;;;;6257084;28;20338;-53
2022/04/21 16:16:12;;;;;;;29.80;16.42;;;;;;;;;;6262983;28;20472;-57
2022/04/21 16:19:12;;;;;;;44.08;17.90;;;;;;;;;;6264243;28;20053;-55
2022/04/21 16:22:15;;;;;;;27.65;14.57;;;;;;;;;;6263970;28;20063;-54
2022/04/21 16:25:16;;;;;;;;;;;;;;;;;;6264252;28;20053;-52
2022/04/21 16:28:16;;;;;;;25.30;14.57;;;;;;;;;;6259078;28;20019;-52
2022/04/21 16:31:17;;;;;;;27.35;13.20;;;;;;;;;;6263113;28;20057;-61
2022/04/21 16:34:18;;;;;;;29.30;13.93;;;;;;;;;;6260840;28;20416;-57
2022/04/21 16:37:19;;;;;;;29.77;13.68;;;;;;;;;;6264759;28;20060;-54
2022/04/21 16:40:20;;;;;;;27.17;14.27;;;;;;;;;;6264803;28;20056;-53
2022/04/21 16:43:20;;;;;;;24.98;13.20;;;;;;;;;;6262979;28;20049;-55
2022/04/21 16:46:21;;;;;;;27.70;14.15;;;;;;;;;;6263139;28;20049;-54
2022/04/21 16:49:21;;;;;;;25.40;13.88;;;;;;;;;;6264029;28;20511;-55
2022/04/21 16:52:24;;;;;;;27.35;14.57;;;;;;;;;;6261555;28;20128;-52
2022/04/21 16:55:25;;;;;;;27.70;13.90;;;;;;;;;;6264019;28;20435;-58
2022/04/21 16:58:25;;;;;;;25.52;14.15;;;;;;;;;;6264057;28;20056;-58
2022/04/21 17:04:45;;;;;;;27.63;14.02;;;;;;;;;;6265004;28;20138;-59
2022/04/21 17:07:49;;;;;;;27.70;13.73;;;;;;;;;;6268382;28;20128;-54
2022/04/21 17:10:50;;;;;;;27.10;12.90;;;;;;;;;;6267770;28;20106;-52
2022/04/21 17:13:51;;;;;;;26.38;14.10;;;;;;;;;;6266431;28;20084;-51
2022/04/21 17:16:52;;;;;;;28.05;14.88;;;;;;;;;;6267170;28;20079;-53
2022/04/21 17:19:52;;;;;;;39.95;16.92;;;;;;;;;;6267114;28;20084;-55
2022/04/21 17:22:53;;;;;;;39.17;17.42;;;;;;;;;;6266318;28;20055;-55
2022/04/21 17:25:54;;;;;;;47.70;19.30;;;;;;;;;;6263106;28;20139;-62
2022/04/21 17:28:54;;;;;;;48.60;20.60;;;;;;;;;;6263365;28;20079;-55
2022/04/21 17:31:55;;;;;;;50.38;21.98;;;;;;;;;;6265397;28;20076;-53
2022/04/21 17:34:57;;;;;;;45.33;20.15;;;;;;;;;;6261748;28;20053;-54
2022/04/21 17:37:58;;;;;;;55.78;23.13;;;;;;;;;;6261764;28;20044;-55
2022/04/21 17:40:58;;;;;;;59.88;24.52;;;;;;;;;;6265002;28;20041;-56
2022/04/21 17:43:59;;;;;;;46.85;21.27;;;;;;;;;;6263464;28;20165;-56
2022/04/21 17:47:00;;;;;;;43.90;19.80;;;;;;;;;;6259785;28;20052;-54
2022/04/21 17:50:02;;;;;;;40.38;19.85;;;;;;;;;;6266285;28;20037;-55
2022/04/21 17:53:03;;;;;;;46.92;20.45;;;;;;;;;;6265093;28;20044;-55
2022/04/21 17:56:05;;;;;;;44.88;21.20;;;;;;;;;;6265081;28;20794;-54
2022/04/21 17:59:05;;;;;;;48.93;21.43;;;;;;;;;;6263313;28;20613;-53
2022/04/21 18:02:06;;;;;;;46.67;20.20;;;;;;;;;;6263964;28;20045;-56
2022/04/21 18:05:07;;;;;;;87.47;32.10;;;;;;;;;;6261786;28;20619;-54
2022/04/21 18:08:07;;;;;;;203.73;58.28;;;;;;;;;;6248796;28;20049;-53
2022/04/21 18:11:10;;;;;;;165.00;52.65;;;;;;;;;;6263057;28;20057;-53
2022/04/21 18:14:10;;;;;;;125.97;47.80;;;;;;;;;;6263452;28;20052;-53
2022/04/21 18:17:11;;;;;;;110.35;45.05;;;;;;;;;;6263137;28;20049;-53
2022/04/21 18:20:12;;;;;;;95.97;42.25;;;;;;;;;;6263442;28;20108;-54
2022/04/21 18:23:13;;;;;;;89.05;39.33;;;;;;;;;;6263721;28;20087;-52
2022/04/21 18:26:15;;;;;;;98.07;40.83;;;;;;;;;;6263091;28;20052;-56
2022/04/21 18:29:16;;;;;;;88.15;39.97;;;;;;;;;;6262932;28;20452;-54
2022/04/21 18:32:16;;;;;;;119.65;50.17;;;;;;;;;;6263618;28;20118;-56
2022/04/21 18:35:18;;;;;;;173.55;69.07;;;;;;;;;;6265112;28;20049;-54
2022/04/21 18:38:18;;;;;;;206.05;86.35;;;;;;;;;;6263119;28;20041;-54
2022/04/21 18:41:19;;;;;;;206.48;81.22;;;;;;;;;;6263633;28;20585;-55
2022/04/21 18:44:19;;;;;;;252.70;94.38;;;;;;;;;;6263943;28;20107;-54